Time;durP1;ratioP1;P1;durP2;ratioP2;P2;SDS_P1;SDS_P2;PMS_P1;PMS_P2;Temp;Humidity;BMP_temperature;BMP_pressure;BME280_temperature;BME280_humidity;BME280_pressure;Samples;Min_cycle;Max_cycle;Signal;HPM_P1;HPM_P2
2021/12/23 00:01:35;;;;;;;1.77;0.50;;;;;;;-8.92;66.23;100467.13;1700487;83;21077;-51
2021/12/23 00:04:01;;;;;;;2.53;0.60;;;;;;;-9.00;66.58;100471.14;1702461;82;21105;-49
2021/12/23 00:06:28;;;;;;;4.57;0.50;;;;;;;-9.04;66.54;100472.75;1703090;83;21389;-51
2021/12/23 00:08:57;;;;;;;1.17;0.50;;;;;;;-9.07;66.76;100469.11;1701305;82;22168;-50
2021/12/23 00:11:24;;;;;;;3.00;0.50;;;;;;;-9.08;66.85;100466.03;1698981;82;21054;-50
2021/12/23 00:14:00;;;;;;;1.67;0.50;;;;;;;-9.08;66.65;100473.85;1705490;82;21098;-51
2021/12/23 00:16:29;;;;;;;0.93;0.50;;;;;;;-9.08;66.75;100467.33;1644299;85;21159;-50
2021/12/23 00:18:54;;;;;;;4.00;0.50;;;;;;;-9.07;66.66;100467.40;1701052;82;21125;-50
2021/12/23 00:24:00;;;;;;;;;;;;;;;-9.05;66.56;100472.27;1704768;83;21108;-50
2021/12/23 00:26:27;;;;;;;4.60;0.67;;;;;;;-9.01;66.65;100473.27;1698932;82;20645;-51
2021/12/23 00:28:55;;;;;;;1.30;0.60;;;;;;;-8.98;66.63;100479.92;1705245;82;21441;-49
2021/12/23 00:31:21;;;;;;;1.20;0.60;;;;;;;-8.94;66.68;100478.83;1704371;83;21077;-51
2021/12/23 00:33:47;;;;;;;1.37;0.60;;;;;;;-8.91;66.57;100480.65;1702408;83;23309;-50
2021/12/23 00:36:14;;;;;;;1.67;0.60;;;;;;;-8.91;66.58;100478.04;1702769;83;21548;-50
2021/12/23 00:38:47;;;;;;;2.57;0.60;;;;;;;-8.92;66.54;100479.75;1699941;82;21189;-49
2021/12/23 00:41:10;;;;;;;1.80;0.50;;;;;;;-8.93;66.55;100477.97;1705741;82;21499;-50
2021/12/23 00:43:38;;;;;;;1.00;0.50;;;;;;;-8.91;66.56;100475.02;1701423;83;21661;-50
2021/12/23 00:46:06;;;;;;;1.00;0.50;;;;;;;-8.88;66.61;100475.56;1703440;83;21371;-51
2021/12/23 00:48:35;;;;;;;1.60;0.60;;;;;;;-8.86;66.61;100476.11;1702288;82;21065;-50
2021/12/23 00:51:03;;;;;;;1.50;0.57;;;;;;;-8.82;66.50;100481.02;1703963;82;21097;-51
2021/12/23 00:53:36;;;;;;;1.53;0.60;;;;;;;-8.83;66.29;100476.63;1680979;83;20931;-50
2021/12/23 00:55:58;;;;;;;1.40;0.40;;;;;;;-8.90;66.35;100474.20;1703966;82;21557;-50
2021/12/23 00:58:24;;;;;;;1.53;0.60;;;;;;;-8.93;66.30;100467.98;1703341;82;21128;-49
2021/12/23 01:00:50;;;;;;;3.03;0.57;;;;;;;-8.95;66.37;100470.52;1703018;82;21071;-50
2021/12/23 01:03:18;;;;;;;0.80;0.53;;;;;;;-8.94;66.30;100472.31;1699734;83;21154;-50
2021/12/23 01:05:44;;;;;;;2.97;0.50;;;;;;;-8.95;66.16;100470.52;1699328;83;21131;-50
2021/12/23 01:08:12;;;;;;;1.43;0.53;;;;;;;-8.96;66.11;100473.95;1675677;83;21409;-50
2021/12/23 01:10:39;;;;;;;2.17;0.60;;;;;;;-8.98;65.95;100482.13;1700331;82;21264;-51
2021/12/23 01:13:06;;;;;;;2.70;0.50;;;;;;;-9.05;66.08;100487.03;1692633;82;21761;-49
2021/12/23 01:18:12;;;;;;;1.17;0.50;;;;;;;-9.07;66.29;100484.77;1724733;80;21360;-49
2021/12/23 01:20:53;;;;;;;1.97;0.50;;;;;;;-9.03;66.38;100487.99;1730368;80;21642;-51
2021/12/23 01:23:22;;;;;;;0.87;0.50;;;;;;;-9.00;66.34;100483.77;1735399;80;21018;-49
2021/12/23 01:25:49;;;;;;;3.90;0.60;;;;;;;-9.05;66.41;100483.12;1697435;82;21122;-50
2021/12/23 01:28:16;;;;;;;2.17;0.50;;;;;;;-9.05;66.50;100488.34;1705158;82;21004;-50
2021/12/23 01:30:42;;;;;;;2.00;0.53;;;;;;;-9.04;66.51;100484.91;1731888;80;21219;-51
2021/12/23 01:33:09;;;;;;;2.33;0.60;;;;;;;-9.02;66.58;100485.86;1697938;82;21532;-51
2021/12/23 01:35:35;;;;;;;3.43;0.60;;;;;;;-9.02;66.49;100488.47;1733198;81;21052;-51
2021/12/23 01:38:02;;;;;;;1.27;0.73;;;;;;;-9.05;66.47;100493.14;1727164;80;20911;-51
2021/12/23 01:40:29;;;;;;;1.67;0.70;;;;;;;-9.05;66.58;100493.55;1731394;81;21057;-51
2021/12/23 01:42:56;;;;;;;1.70;0.50;;;;;;;-9.05;66.65;100490.94;1726484;80;21150;-51
2021/12/23 01:45:26;;;;;;;1.30;0.63;;;;;;;-9.06;66.60;100491.36;1726857;80;21049;-50
2021/12/23 01:47:52;;;;;;;2.37;0.60;;;;;;;-9.08;66.71;100483.88;1729181;80;21801;-51
2021/12/23 01:50:27;;;;;;;3.20;1.47;;;;;;;-9.04;66.92;100484.48;1730226;80;21021;-51
2021/12/23 01:52:59;;;;;;;3.07;0.57;;;;;;;-9.00;67.00;100481.58;1697741;83;21034;-51
2021/12/23 01:55:26;;;;;;;1.83;0.63;;;;;;;-8.98;67.15;100488.65;1696821;83;21070;-50
2021/12/23 01:57:53;;;;;;;2.70;0.80;;;;;;;-8.96;67.17;100495.23;1697605;82;20970;-50
2021/12/23 02:00:22;;;;;;;2.53;0.80;;;;;;;-8.97;67.09;100496.95;1732158;80;21108;-51
2021/12/23 02:02:49;;;;;;;2.80;0.70;;;;;;;-8.99;67.31;100502.92;1728448;80;20946;-51
2021/12/23 02:05:16;;;;;;;2.90;0.80;;;;;;;-8.96;67.42;100504.37;1731395;80;21046;-50
2021/12/23 02:07:44;;;;;;;2.33;0.80;;;;;;;-8.91;67.42;100506.73;1736763;80;20963;-51
2021/12/23 02:10:10;;;;;;;2.40;0.63;;;;;;;-8.92;67.41;100498.42;1730444;80;20949;-51
2021/12/23 02:12:44;;;;;;;3.43;0.90;;;;;;;-8.93;67.38;100500.59;1728883;80;21379;-51
2021/12/23 02:15:11;;;;;;;1.87;0.70;;;;;;;-8.94;67.43;100494.89;1731436;80;20886;-51
2021/12/23 02:17:38;;;;;;;3.47;0.90;;;;;;;-8.95;67.54;100494.41;1732387;80;21288;-51
2021/12/23 02:20:11;;;;;;;2.53;0.70;;;;;;;-8.92;67.68;100498.02;1725574;81;21369;-50
2021/12/23 02:22:37;;;;;;;1.30;0.70;;;;;;;-8.87;67.73;100494.31;1729058;80;21614;-51
2021/12/23 02:25:05;;;;;;;5.03;0.80;;;;;;;-8.84;67.54;100494.41;1732389;80;21385;-51
2021/12/23 02:27:32;;;;;;;1.20;0.60;;;;;;;-8.85;67.49;100500.08;1730265;81;20938;-51
2021/12/23 02:29:58;;;;;;;6.70;0.80;;;;;;;-8.86;67.43;100496.09;1732444;82;20962;-50
2021/12/23 02:32:24;;;;;;;3.50;0.77;;;;;;;-8.88;67.44;100494.72;1730066;80;22006;-50
2021/12/23 02:34:50;;;;;;;2.77;0.70;;;;;;;-8.89;67.41;100495.55;1732826;80;21932;-50
2021/12/23 02:37:18;;;;;;;3.07;0.70;;;;;;;-8.90;67.46;100491.15;1700009;82;21468;-48
2021/12/23 02:39:45;;;;;;;1.83;0.70;;;;;;;-8.92;67.41;100494.10;1697629;82;20924;-52
2021/12/23 02:42:11;;;;;;;1.93;0.67;;;;;;;-8.92;67.27;100494.10;1696889;83;20951;-48
2021/12/23 02:44:38;;;;;;;2.70;0.70;;;;;;;-8.93;67.29;100500.14;1711917;80;20958;-50
2021/12/23 02:47:05;;;;;;;1.50;0.60;;;;;;;-8.95;67.26;100491.39;1695574;83;21273;-48
2021/12/23 02:49:33;;;;;;;2.23;0.63;;;;;;;-8.97;67.30;100499.97;1695157;83;21054;-48
2021/12/23 02:51:59;;;;;;;1.73;0.70;;;;;;;-8.97;67.32;100495.65;1730010;80;21004;-50
2021/12/23 02:54:25;;;;;;;3.93;0.70;;;;;;;-8.99;67.30;100497.30;1694644;82;21392;-48
2021/12/23 02:56:52;;;;;;;2.90;0.70;;;;;;;-8.99;67.31;100489.47;1695854;83;21167;-48
2021/12/23 02:59:18;;;;;;;2.03;0.70;;;;;;;-9.01;67.26;100483.29;1696024;82;22156;-50
2021/12/23 03:01:45;;;;;;;1.80;0.83;;;;;;;-9.02;67.24;100494.58;1689217;82;22153;-50
2021/12/23 03:04:12;;;;;;;4.17;0.87;;;;;;;-9.03;67.29;100487.58;1726855;80;22090;-48
2021/12/23 03:06:38;;;;;;;2.90;1.10;;;;;;;-9.02;67.09;100496.30;1734025;80;21093;-49
2021/12/23 03:09:05;;;;;;;1.53;0.60;;;;;;;-9.03;67.08;100504.95;1728533;81;21121;-50
2021/12/23 03:11:32;;;;;;;1.27;0.80;;;;;;;-9.04;67.09;100501.86;1695539;82;21089;-48
2021/12/23 03:13:58;;;;;;;1.67;0.70;;;;;;;-9.05;67.00;100507.90;1729225;81;21110;-50
2021/12/23 03:16:29;;;;;;;1.77;1.37;;;;;;;-9.05;66.93;100503.57;1734470;80;21066;-48
2021/12/23 03:18:57;;;;;;;3.80;0.60;;;;;;;-9.04;66.91;100512.29;1695713;83;21114;-49
2021/12/23 03:21:23;;;;;;;1.97;0.57;;;;;;;-9.07;66.73;100503.02;1726388;80;21286;-48
2021/12/23 03:23:51;;;;;;;3.73;0.67;;;;;;;-9.11;66.66;100502.44;1725922;80;21375;-47
2021/12/23 03:26:18;;;;;;;1.50;0.70;;;;;;;-9.15;66.72;100509.23;1695820;82;21160;-51
2021/12/23 03:28:45;;;;;;;3.10;0.70;;;;;;;-9.19;66.66;100513.44;1725554;80;21038;-51
2021/12/23 03:31:11;;;;;;;1.33;0.73;;;;;;;-9.19;66.68;100511.24;1728694;80;21061;-48
2021/12/23 03:33:39;;;;;;;1.53;0.60;;;;;;;-9.21;66.63;100509.88;1731827;80;21034;-49
2021/12/23 03:36:06;;;;;;;4.17;0.87;;;;;;;-9.20;66.62;100512.06;1728789;80;21077;-49
2021/12/23 03:38:32;;;;;;;1.40;0.60;;;;;;;-9.20;66.61;100514.67;1726969;80;21109;-51
2021/12/23 03:40:58;;;;;;;1.20;0.57;;;;;;;-9.21;66.42;100516.39;1699490;82;21065;-50
2021/12/23 03:43:28;;;;;;;2.90;0.80;;;;;;;-9.24;66.26;100514.95;1727289;80;21151;-47
2021/12/23 03:45:54;;;;;;;1.63;0.60;;;;;;;-9.32;66.18;100508.52;1727792;80;21630;-51
2021/12/23 03:48:21;;;;;;;3.87;0.70;;;;;;;-9.33;66.28;100510.64;1728055;80;21544;-50
2021/12/23 03:50:47;;;;;;;2.03;0.67;;;;;;;-9.33;66.28;100519.77;1690877;83;21765;-49
2021/12/23 03:53:16;;;;;;;1.20;0.50;;;;;;;-9.35;66.22;100522.71;1693501;83;21062;-48
2021/12/23 03:55:42;;;;;;;1.83;0.67;;;;;;;-9.38;66.08;100523.91;1689894;83;21626;-49
2021/12/23 03:58:08;;;;;;;1.60;0.60;;;;;;;-9.46;65.60;100527.00;1692540;82;21097;-49
2021/12/23 04:00:35;;;;;;;1.00;0.60;;;;;;;-9.59;65.86;100529.06;1699371;82;21076;-47
2021/12/23 04:03:01;;;;;;;1.23;0.60;;;;;;;-9.61;65.97;100524.63;1725469;80;21086;-50
2021/12/23 04:05:27;;;;;;;0.97;0.57;;;;;;;-9.65;65.91;100522.28;1723329;80;21046;-50
2021/12/23 04:07:54;;;;;;;1.30;0.60;;;;;;;-9.68;65.78;100521.25;1693619;83;21051;-50
2021/12/23 04:10:21;;;;;;;1.10;0.67;;;;;;;-9.76;65.91;100525.23;1730289;80;21110;-48
2021/12/23 04:12:48;;;;;;;1.93;0.60;;;;;;;-9.80;66.01;100531.14;1726253;80;21061;-52
2021/12/23 04:15:16;;;;;;;1.27;0.70;;;;;;;-9.82;66.02;100537.58;1727720;80;21385;-49
2021/12/23 04:17:43;;;;;;;2.30;0.70;;;;;;;-9.85;66.14;100538.73;1729854;80;21543;-47
2021/12/23 04:20:53;;;;;;;1.83;0.70;;;;;;;-9.84;66.20;100540.52;1725815;80;21673;-48
2021/12/23 04:22:42;;;;;;;2.20;0.80;;;;;;;-9.86;66.21;100538.25;1712342;81;21986;-49
2021/12/23 04:25:10;;;;;;;2.97;0.80;;;;;;;-9.83;66.39;100547.52;1727262;80;21535;-50
2021/12/23 04:27:37;;;;;;;2.57;1.63;;;;;;;-9.81;66.43;100546.29;1729964;80;21107;-50
2021/12/23 04:30:07;;;;;;;4.40;1.30;;;;;;;-9.81;66.34;100541.08;1694455;82;21124;-47
2021/12/23 04:32:34;;;;;;;2.70;0.90;;;;;;;-9.82;66.30;100539.29;1696980;82;21090;-50
2021/12/23 04:35:00;;;;;;;3.13;1.20;;;;;;;-9.86;66.19;100543.87;1695042;82;21101;-49
2021/12/23 04:37:26;;;;;;;4.60;1.30;;;;;;;-9.94;66.08;100543.52;1693672;83;21114;-50
2021/12/23 04:39:53;;;;;;;4.70;1.30;;;;;;;-10.01;66.12;100542.77;1693807;83;21117;-48
2021/12/23 04:42:19;;;;;;;3.73;1.33;;;;;;;-10.06;66.21;100544.28;1696542;82;21093;-49
2021/12/23 04:44:45;;;;;;;4.47;1.00;;;;;;;-10.09;66.16;100547.62;1723727;80;21095;-49
2021/12/23 04:47:12;;;;;;;4.73;1.13;;;;;;;-10.11;66.20;100553.58;1732336;80;21027;-48
2021/12/23 04:49:38;;;;;;;3.47;1.00;;;;;;;-10.17;66.11;100543.78;1725897;80;21081;-49
2021/12/23 04:52:06;;;;;;;1.93;1.07;;;;;;;-10.23;66.05;100546.55;1728786;80;21140;-51
2021/12/23 04:54:33;;;;;;;6.23;1.83;;;;;;;-10.27;66.03;100551.12;1733688;80;20987;-50
2021/12/23 04:56:59;;;;;;;6.47;1.33;;;;;;;-10.36;65.94;100545.06;1695527;82;20888;-47
2021/12/23 04:59:26;;;;;;;8.20;2.30;;;;;;;-10.43;66.01;100548.20;1692877;82;21324;-48
2021/12/23 05:01:52;;;;;;;7.47;1.77;;;;;;;-10.51;65.96;100552.16;1691266;82;21655;-50
2021/12/23 05:04:18;;;;;;;6.37;1.50;;;;;;;-10.57;66.01;100559.27;1694022;82;21103;-48
2021/12/23 05:06:45;;;;;;;8.03;2.23;;;;;;;-10.60;66.08;100551.30;1732475;80;20942;-48
2021/12/23 05:09:11;;;;;;;4.83;1.50;;;;;;;-10.61;66.02;100563.83;1697405;82;20970;-50
2021/12/23 05:11:37;;;;;;;8.03;1.83;;;;;;;-10.64;66.01;100555.00;1727150;80;20898;-49
2021/12/23 05:14:04;;;;;;;8.67;3.10;;;;;;;-10.67;65.94;100557.03;1706061;82;20907;-48
2021/12/23 05:16:31;;;;;;;5.73;1.80;;;;;;;-10.68;65.93;100553.95;1702403;83;21110;-47
2021/12/23 05:18:57;;;;;;;4.27;1.40;;;;;;;-10.72;65.75;100556.80;1702023;82;20978;-49
2021/12/23 05:21:23;;;;;;;5.83;1.70;;;;;;;-10.73;65.83;100551.55;1703844;82;20939;-50
2021/12/23 05:23:50;;;;;;;4.90;2.13;;;;;;;-10.75;65.69;100563.58;1702808;83;20911;-50
2021/12/23 05:26:16;;;;;;;6.67;1.97;;;;;;;-10.80;65.59;100568.97;1707512;82;21405;-49
2021/12/23 05:28:43;;;;;;;11.53;2.30;;;;;;;-10.88;65.53;100568.56;1704441;82;21359;-48
2021/12/23 05:31:10;;;;;;;8.47;2.17;;;;;;;-10.94;65.71;100567.38;1708382;82;21324;-50
2021/12/23 05:33:36;;;;;;;7.63;2.20;;;;;;;-10.96;65.74;100576.80;1701832;83;21422;-50
2021/12/23 05:36:03;;;;;;;6.90;2.13;;;;;;;-10.98;65.78;100576.75;1679783;83;20958;-49
2021/12/23 05:38:29;;;;;;;8.60;2.03;;;;;;;-10.98;65.89;100572.85;1703540;82;20985;-50
2021/12/23 05:40:56;;;;;;;7.23;2.10;;;;;;;-10.97;66.04;100575.91;1676606;83;21863;-49
2021/12/23 05:43:22;;;;;;;8.50;2.77;;;;;;;-10.95;66.08;100575.98;1703687;83;21500;-51
2021/12/23 05:45:49;;;;;;;6.20;2.03;;;;;;;-10.95;66.03;100578.59;1677212;83;21128;-51
2021/12/23 05:48:15;;;;;;;9.63;2.67;;;;;;;-10.99;65.96;100576.27;1702141;83;21046;-48
2021/12/23 05:50:41;;;;;;;7.87;1.83;;;;;;;-11.04;66.01;100572.52;1706335;83;21120;-50
2021/12/23 05:53:09;;;;;;;7.37;2.10;;;;;;;-11.05;65.96;100573.33;1701666;83;22541;-52
2021/12/23 05:55:36;;;;;;;10.70;2.17;;;;;;;-11.06;65.93;100581.98;1702017;83;21062;-47
2021/12/23 05:58:02;;;;;;;9.03;2.93;;;;;;;-11.09;65.95;100576.61;1698398;83;21097;-50
2021/12/23 06:00:31;;;;;;;9.27;2.37;;;;;;;-11.09;66.05;100577.91;1678016;84;21448;-50
2021/12/23 06:02:59;;;;;;;8.33;2.83;;;;;;;-11.07;66.12;100580.19;1706371;83;21033;-48
2021/12/23 06:05:25;;;;;;;6.90;2.17;;;;;;;-11.04;66.09;100575.53;1702607;82;21565;-47
2021/12/23 06:07:51;;;;;;;8.73;2.33;;;;;;;-11.01;66.11;100586.98;1697004;82;21161;-47
2021/12/23 06:10:18;;;;;;;8.27;2.67;;;;;;;-10.98;66.12;100579.76;1700965;83;21093;-49
2021/12/23 06:12:45;;;;;;;8.13;3.47;;;;;;;-10.97;66.06;100583.70;1704166;82;21113;-47
2021/12/23 06:15:11;;;;;;;9.77;2.73;;;;;;;-10.93;66.07;100589.56;1717404;82;20966;-47
2021/12/23 06:17:38;;;;;;;10.30;3.47;;;;;;;-10.92;66.10;100584.84;1712640;81;21102;-50
2021/12/23 06:20:05;;;;;;;11.43;3.63;;;;;;;-10.89;66.15;100582.41;1711354;82;21582;-48
2021/12/23 06:22:36;;;;;;;6.80;2.90;;;;;;;-10.87;66.26;100582.05;1713381;82;21086;-48
2021/12/23 06:25:04;;;;;;;7.87;2.73;;;;;;;-10.84;66.38;100576.13;1709793;81;21069;-51
2021/12/23 06:27:31;;;;;;;8.80;1.63;;;;;;;-10.74;66.68;100577.96;1712918;83;21930;-51
2021/12/23 06:29:57;;;;;;;9.20;1.37;;;;;;;-10.67;66.74;100577.84;1713661;82;21100;-50
2021/12/23 06:32:24;;;;;;;6.23;1.73;;;;;;;-10.63;66.86;100577.16;1715024;81;22138;-49
2021/12/23 06:34:51;;;;;;;6.17;1.30;;;;;;;-10.59;66.98;100576.51;1712259;82;21544;-51
2021/12/23 06:37:17;;;;;;;5.10;1.60;;;;;;;-10.52;67.22;100574.68;1712873;82;21093;-47
2021/12/23 06:39:46;;;;;;;7.13;2.23;;;;;;;-10.45;67.28;100563.73;1709561;82;21069;-49
2021/12/23 06:42:12;;;;;;;12.70;2.10;;;;;;;-10.38;67.25;100564.95;1710656;82;21083;-49
2021/12/23 06:44:38;;;;;;;6.17;1.97;;;;;;;-10.32;67.35;100570.44;1713639;82;21125;-48
2021/12/23 06:47:07;;;;;;;6.87;1.73;;;;;;;-10.30;67.39;100567.50;1713410;81;21046;-50
2021/12/23 06:49:34;;;;;;;9.20;2.17;;;;;;;-10.25;67.37;100567.70;1712895;82;21070;-49
2021/12/23 06:52:00;;;;;;;7.63;1.57;;;;;;;-10.22;67.43;100563.55;1710827;83;21136;-49
2021/12/23 06:54:27;;;;;;;7.07;2.10;;;;;;;-10.20;67.46;100567.09;1712543;81;21094;-50
2021/12/23 06:56:53;;;;;;;5.70;2.00;;;;;;;-10.15;67.51;100573.39;1714793;81;21136;-48
2021/12/23 06:59:19;;;;;;;6.57;2.17;;;;;;;-10.12;67.53;100572.20;1715069;82;21022;-47
2021/12/23 07:01:47;;;;;;;7.53;1.87;;;;;;;-10.07;67.60;100573.34;1702476;82;20962;-48
2021/12/23 07:04:16;;;;;;;6.93;1.90;;;;;;;-10.05;67.58;100577.32;1710768;81;21120;-49
2021/12/23 07:06:52;;;;;;;5.30;1.60;;;;;;;-10.03;67.71;100580.86;1710351;82;22324;-48
2021/12/23 07:09:15;;;;;;;4.17;1.27;;;;;;;-9.99;67.75;100580.20;1714338;81;21066;-51
2021/12/23 07:11:42;;;;;;;1.87;1.00;;;;;;;-9.95;67.77;100571.28;1706890;82;21092;-51
2021/12/23 07:14:09;;;;;;;4.13;0.80;;;;;;;-9.90;67.77;100569.31;1709764;82;21108;-49
2021/12/23 07:16:38;;;;;;;2.03;0.70;;;;;;;-9.86;67.74;100573.82;1713617;82;21129;-48
2021/12/23 07:19:03;;;;;;;3.50;0.87;;;;;;;-9.85;67.77;100567.80;1711692;82;21129;-49
2021/12/23 07:21:30;;;;;;;2.10;0.70;;;;;;;-9.83;67.77;100570.96;1708874;82;21081;-51
2021/12/23 07:23:56;;;;;;;2.93;0.63;;;;;;;-9.78;67.70;100572.49;1686616;83;21076;-47
2021/12/23 07:26:23;;;;;;;2.97;0.67;;;;;;;-9.75;67.67;100580.02;1712278;82;21070;-49
2021/12/23 07:28:49;;;;;;;1.50;0.60;;;;;;;-9.73;67.60;100576.18;1717553;83;21054;-49
2021/12/23 07:31:15;;;;;;;5.50;0.77;;;;;;;-9.70;67.54;100573.31;1709586;82;21120;-48
2021/12/23 07:33:42;;;;;;;1.47;0.70;;;;;;;-9.68;67.58;100572.05;1711739;81;21108;-49
2021/12/23 07:36:09;;;;;;;2.60;0.63;;;;;;;-9.65;67.61;100570.91;1713099;82;21097;-49
2021/12/23 07:38:37;;;;;;;3.13;0.60;;;;;;;-9.63;67.58;100572.77;1703410;83;21113;-47
2021/12/23 07:41:03;;;;;;;2.70;0.70;;;;;;;-9.59;67.61;100565.95;1712700;82;21077;-48
2021/12/23 07:46:03;;;;;;;2.53;0.70;;;;;;;-9.53;67.50;100568.86;1717799;82;21109;-51
2021/12/23 07:48:32;;;;;;;1.50;0.73;;;;;;;-9.51;67.40;100565.88;1707790;81;21065;-47
2021/12/23 07:50:59;;;;;;;4.60;0.83;;;;;;;-9.51;67.40;100568.48;1713088;81;21026;-50
2021/12/23 07:53:25;;;;;;;1.10;0.70;;;;;;;-9.49;67.25;100566.84;1686724;83;21116;-49
2021/12/23 07:55:53;;;;;;;2.60;0.70;;;;;;;-9.47;67.03;100565.21;1707671;82;21143;-48
2021/12/23 07:58:19;;;;;;;3.23;0.60;;;;;;;-9.42;67.00;100566.29;1716797;82;20962;-48
2021/12/23 08:00:46;;;;;;;1.23;0.60;;;;;;;-9.44;66.71;100566.63;1714537;82;20938;-48
2021/12/23 08:03:12;;;;;;;2.07;0.70;;;;;;;-9.47;66.64;100566.92;1714436;82;20922;-48
2021/12/23 08:05:41;;;;;;;1.63;0.70;;;;;;;-9.45;66.52;100569.19;1714430;82;21030;-47
2021/12/23 08:08:07;;;;;;;2.63;0.60;;;;;;;-9.44;66.43;100570.98;1716586;82;22127;-47
2021/12/23 08:10:34;;;;;;;4.77;0.73;;;;;;;-9.43;66.32;100564.50;1715076;82;22082;-49
2021/12/23 08:13:01;;;;;;;2.37;0.97;;;;;;;-9.43;66.18;100568.82;1716250;82;21381;-49
2021/12/23 08:15:27;;;;;;;3.67;1.00;;;;;;;-9.42;66.15;100567.59;1698315;83;20929;-48
2021/12/23 08:17:54;;;;;;;5.67;0.80;;;;;;;-9.41;66.03;100561.56;1702822;82;21465;-50
2021/12/23 08:20:20;;;;;;;3.10;0.80;;;;;;;-9.39;66.01;100553.41;1730764;81;21292;-49
2021/12/23 08:22:46;;;;;;;4.17;0.70;;;;;;;-9.35;66.03;100550.08;1729547;82;20883;-49
2021/12/23 08:25:13;;;;;;;2.63;0.90;;;;;;;-9.25;66.04;100550.07;1727267;81;20959;-48
2021/12/23 08:27:40;;;;;;;1.20;0.60;;;;;;;-9.16;65.91;100541.34;1732518;80;20899;-50
2021/12/23 08:30:08;;;;;;;2.47;0.63;;;;;;;-9.12;65.69;100542.37;1694786;82;20955;-50
2021/12/23 08:32:35;;;;;;;2.07;0.50;;;;;;;-9.07;65.57;100540.84;1730730;80;21403;-51
2021/12/23 08:35:02;;;;;;;1.90;0.70;;;;;;;-9.07;65.42;100539.53;1697924;82;21410;-48
2021/12/23 08:37:29;;;;;;;2.53;0.70;;;;;;;-9.07;65.39;100531.71;1730463;80;21138;-51
2021/12/23 08:39:55;;;;;;;3.70;1.07;;;;;;;-9.06;65.35;100530.48;1696901;83;20967;-49
2021/12/23 08:42:21;;;;;;;2.50;0.80;;;;;;;-9.06;65.31;100537.00;1684927;83;21026;-51
2021/12/23 08:44:48;;;;;;;1.83;0.90;;;;;;;-9.01;65.34;100523.72;1721137;81;21185;-49
2021/12/23 08:47:14;;;;;;;3.37;0.87;;;;;;;-8.93;65.24;100522.77;1725000;80;21056;-50
2021/12/23 08:49:42;;;;;;;2.60;1.10;;;;;;;-8.88;65.24;100518.61;1725986;81;21069;-50
2021/12/23 08:52:08;;;;;;;1.77;0.80;;;;;;;-8.83;65.11;100517.07;1699377;82;20904;-47
2021/12/23 08:54:35;;;;;;;1.93;0.80;;;;;;;-8.79;65.03;100517.69;1729606;80;21077;-49
2021/12/23 08:57:02;;;;;;;2.60;0.70;;;;;;;-8.76;64.99;100507.80;1694092;82;21354;-51
2021/12/23 08:59:28;;;;;;;2.30;0.80;;;;;;;-8.72;64.95;100504.05;1695367;83;21615;-49
2021/12/23 09:01:55;;;;;;;2.53;0.73;;;;;;;-8.66;64.81;100508.61;1692591;83;21117;-50
2021/12/23 09:04:22;;;;;;;2.10;1.13;;;;;;;-8.62;64.85;100500.98;1694672;82;20920;-51
2021/12/23 09:06:48;;;;;;;1.87;0.70;;;;;;;-8.57;64.75;100501.16;1695598;83;21109;-49
2021/12/23 09:09:16;;;;;;;1.63;0.90;;;;;;;-8.56;64.59;100493.80;1696042;83;21094;-51
2021/12/23 09:11:43;;;;;;;3.33;0.70;;;;;;;-8.51;64.48;100484.45;1696033;83;21170;-50
2021/12/23 09:14:09;;;;;;;2.30;0.70;;;;;;;-8.48;64.56;100487.16;1677772;83;21352;-49
2021/12/23 09:16:38;;;;;;;3.13;0.90;;;;;;;-8.46;64.57;100481.17;1709632;81;20904;-48
2021/12/23 09:19:04;;;;;;;3.67;0.90;;;;;;;-8.41;64.39;100484.84;1705406;81;21388;-50
2021/12/23 09:21:31;;;;;;;2.17;0.70;;;;;;;-8.35;64.32;100482.91;1700961;82;21009;-46
2021/12/23 09:23:57;;;;;;;1.40;0.70;;;;;;;-8.31;64.23;100469.53;1705939;81;21058;-48
2021/12/23 09:26:24;;;;;;;3.30;0.80;;;;;;;-8.24;64.19;100476.31;1706399;82;21085;-48
2021/12/23 09:34:57;;;;;;;3.03;0.70;;;;;;;-8.02;63.74;100459.73;1771258;79;21481;-48
2021/12/23 09:37:23;;;;;;;3.90;0.80;;;;;;;-7.96;63.75;100451.22;1766856;80;20994;-49
2021/12/23 09:39:54;;;;;;;5.07;0.97;;;;;;;-7.91;63.95;100449.69;1770607;80;21054;-49
2021/12/23 09:42:28;;;;;;;1.70;1.00;;;;;;;-7.85;63.83;100445.98;1770681;80;21389;-50
2021/12/23 09:44:58;;;;;;;2.20;1.20;;;;;;;-7.77;63.60;100451.95;1768575;78;22144;-49
2021/12/23 09:47:28;;;;;;;2.60;1.10;;;;;;;-7.72;63.43;100447.77;1773784;80;21100;-49
2021/12/23 09:49:56;;;;;;;2.00;1.20;;;;;;;-7.65;63.33;100448.86;1773164;80;21036;-51
2021/12/23 09:52:23;;;;;;;2.40;0.90;;;;;;;-7.62;63.36;100438.52;1770243;80;21582;-50
2021/12/23 09:54:49;;;;;;;2.93;0.93;;;;;;;-7.59;63.19;100441.67;1770930;78;21645;-52
2021/12/23 09:57:15;;;;;;;3.00;0.80;;;;;;;-7.55;63.14;100430.47;1749320;80;21052;-50
2021/12/23 09:59:43;;;;;;;4.03;1.20;;;;;;;-7.51;63.15;100428.45;1739144;81;21124;-50
2021/12/23 10:02:10;;;;;;;2.37;0.80;;;;;;;-7.45;63.28;100429.95;1738532;81;21077;-50
2021/12/23 10:04:36;;;;;;;3.97;0.90;;;;;;;-7.42;63.15;100420.50;1740221;81;21090;-50
2021/12/23 10:07:03;;;;;;;3.40;0.80;;;;;;;-7.36;63.05;100413.27;1712799;81;21116;-49
2021/12/23 10:09:42;;;;;;;2.50;1.03;;;;;;;-7.31;63.00;100412.98;1740238;81;21073;-49
2021/12/23 10:12:52;;;;;;;3.40;1.00;;;;;;;-7.25;62.72;100407.98;1668857;83;21168;-48
2021/12/23 10:31:32;;;;;;;2.10;0.90;;;;;;;-7.24;62.32;100392.77;1670487;84;20931;-51
2021/12/23 10:37:22;;;;;;;5.80;1.63;;;;;;;-7.24;62.54;100390.56;1693901;83;21129;-48
2021/12/23 10:40:06;;;;;;;8.00;2.60;;;;;;;-7.24;62.47;100379.69;1689945;83;21101;-47
2021/12/23 10:42:33;;;;;;;3.20;1.50;;;;;;;-7.23;62.36;100389.73;1691583;83;20959;-50
2021/12/23 10:45:05;;;;;;;4.30;1.30;;;;;;;-7.25;62.38;100377.90;1694405;83;20920;-47
2021/12/23 10:47:53;;;;;;;5.43;0.93;;;;;;;-7.22;62.41;100380.59;1694316;83;21540;-49
2021/12/23 10:50:39;;;;;;;5.47;1.57;;;;;;;-7.20;62.39;100378.03;1688878;83;21122;-48
2021/12/23 10:53:07;;;;;;;4.10;1.30;;;;;;;-7.22;62.47;100371.44;1689841;82;21505;-51
2021/12/23 10:58:19;;;;;;;4.17;1.60;;;;;;;-7.20;62.50;100361.92;1690965;83;21090;-50
2021/12/23 11:00:54;;;;;;;4.37;2.23;;;;;;;-7.19;62.53;100363.70;1694407;83;20885;-52
2021/12/23 11:03:33;;;;;;;3.43;1.60;;;;;;;-7.17;62.56;100358.52;1692780;83;20951;-49
2021/12/23 11:06:15;;;;;;;9.00;2.83;;;;;;;-7.17;62.54;100351.56;1696953;82;21603;-47
2021/12/23 11:08:55;;;;;;;5.40;1.80;;;;;;;-7.14;62.59;100349.03;1693867;83;20971;-48
2021/12/23 11:11:57;;;;;;;5.63;1.83;;;;;;;-7.12;62.56;100345.16;1693281;83;21493;-49
2021/12/23 11:36:34;;;;;;;3.90;2.10;;;;;;;-6.93;62.58;100334.01;1704326;82;21150;-50
2021/12/23 11:39:06;;;;;;;7.53;1.97;;;;;;;-6.87;62.37;100329.37;1695178;83;21454;-49
2021/12/23 11:41:34;;;;;;;4.33;1.50;;;;;;;-6.82;62.16;100330.84;1696525;82;21164;-50
2021/12/23 11:43:52;;;;;;;4.40;1.70;;;;;;;-6.81;62.04;100327.38;1700178;83;21063;-51
2021/12/23 11:49:06;;;;;;;6.53;2.60;;;;;;;-6.76;62.05;100322.73;1821142;76;24909;-48
2021/12/23 11:51:43;;;;;;;3.83;1.43;;;;;;;-6.77;61.94;100322.27;1796000;77;21084;-49
2021/12/23 11:54:04;;;;;;;4.40;1.50;;;;;;;-6.79;61.88;100322.63;1799788;77;21097;-48
2021/12/23 11:56:32;;;;;;;3.13;1.20;;;;;;;-6.82;61.78;100316.02;1790954;77;21314;-51
2021/12/23 11:59:01;;;;;;;4.63;1.93;;;;;;;-6.86;61.70;100324.61;1788289;79;20985;-50
2021/12/23 12:01:30;;;;;;;5.83;2.47;;;;;;;-6.90;61.80;100318.83;1791013;79;20942;-49
2021/12/23 12:04:01;;;;;;;4.83;1.97;;;;;;;-6.91;61.79;100315.74;1785836;79;21561;-48
2021/12/23 12:06:42;;;;;;;4.83;1.97;;;;;;;-6.93;61.85;100312.19;1780545;79;21604;-49
2021/12/23 12:09:22;;;;;;;4.97;1.87;;;;;;;-6.97;61.91;100315.53;1791111;79;20879;-48
2021/12/23 12:12:10;;;;;;;6.50;2.37;;;;;;;-7.00;61.90;100318.97;1789233;79;21106;-49
2021/12/23 12:14:41;;;;;;;3.90;1.10;;;;;;;-7.02;61.94;100321.06;1785312;79;20930;-49
2021/12/23 12:17:33;;;;;;;4.47;2.00;;;;;;;-7.02;61.89;100324.98;1790183;79;20967;-47
2021/12/23 12:20:36;;;;;;;9.50;3.13;;;;;;;-7.05;61.85;100319.23;1787996;79;21607;-49
2021/12/23 12:23:02;;;;;;;5.90;2.97;;;;;;;-7.09;61.99;100320.41;1780308;79;21692;-51
2021/12/23 12:25:41;;;;;;;4.60;2.10;;;;;;;-7.15;61.98;100317.61;1787162;79;20882;-49
2021/12/23 12:28:12;;;;;;;6.50;2.93;;;;;;;-7.19;62.08;100322.27;1788179;79;20847;-49
2021/12/23 12:30:55;;;;;;;4.87;2.43;;;;;;;-7.25;62.12;100320.36;1786590;79;22172;-49